< < Back
Terminal Aerodrome Forecast


Current Version              Previous Versions:   1  2  3  4  5  6  7  8  9  

Terminal Aerodrome Forecast

482
FTUS44 KMOB 271732
TAFPNS
TAF
KPNS 271732Z 2718/2818 21012G18KT P6SM SCT025 BKN035
      TEMPO 2719/2722 3SM TSRA BKN025CB
     FM280100 19004KT P6SM VCSH FEW025 SCT050=

Latest METAR

471
SAUS70 KWBC 280400 RRI
MTRPNS
METAR KPNS 280353Z AUTO 23003KT 10SM CLR 27/23 A3004 RMK AO2 SLP172
T02720233


USA.gov is the U.S. government's official web portal to all federal, state and local government web resources and services.